Main page
METAR-TAF:

METAR-TAF

Airports :

Béziers Cap d'Agde Airport

Béziers, France

latitude: 43-19N, longitude: 003-21E, elevation: 17 m

Current weather observation

The report was made 15 minutes ago, at 18:00 UTC
Wind 5 kt from the East/Southeast
Temperature 25°C
Humidity 83%
Pressure 1014 hPa
Visibility 10 km or more
Broken clouds at a height of 1500 ft

METAR: LFMU 171800Z AUTO 12005KT 9999 BKN015 25/22 Q1014 TEMPO 0200 RA FG VV///

Time: 20:15 (18:15 UTC)

Forecast

The report was made 4 hours and 15 minutes ago, at 14:00 UTC
Forecast valid from 17 at 15 UTC to 18 at 15 UTC
Wind 12 kt from the Southeast
Visibility 10 km or more
Temporary
from 17 at 15 UTC to 18 at 15 UTC
Wind 2 kt from variable directions
Overcast at a height of 1000 ft
Probability 40% :
Temporary
from 17 at 18 UTC to 18 at 15 UTC
Visibility: 0200 m
rain, fog

TAF: LFMU 171400Z 1715/1815 14012KT 9999 NSC TEMPO 1715/1815 VRB02KT OVC010 PROB40 TEMPO 1718/1815 0200 RA FG VV///

Weather observations and forecasts of more than 4000 airports (METAR and TAF reports).

The available stations are represented by yellow and red dots on the map.

Hover mouse over dot to see the name of the station.

Then click to see weather observations and forecasts.

To change the map : click on the green buttons with a black cross to zoom in, on the green button with a dash to zoom out, or on the green arrows for adjacent maps.


METAR-TAF: